sensor_id;sensor_type;location;lat;lon;timestamp;P1;durP1;ratioP1;P2;durP2;ratioP2
51438;SDS011;38816;51.142;-0.974;2023-04-25T00:01:02;43.50;;;39.47;;
51438;SDS011;38816;51.142;-0.974;2023-04-25T00:03:29;44.50;;;40.30;;
51438;SDS011;38816;51.142;-0.974;2023-04-25T00:05:55;47.85;;;42.92;;
51438;SDS011;38816;51.142;-0.974;2023-04-25T00:08:21;49.00;;;42.28;;
51438;SDS011;38816;51.142;-0.974;2023-04-25T00:10:47;44.25;;;40.25;;
51438;SDS011;38816;51.142;-0.974;2023-04-25T00:13:13;44.60;;;39.97;;
51438;SDS011;38816;51.142;-0.974;2023-04-25T00:15:39;44.05;;;40.00;;
51438;SDS011;38816;51.142;-0.974;2023-04-25T00:18:06;45.55;;;40.75;;
51438;SDS011;38816;51.142;-0.974;2023-04-25T00:20:32;44.20;;;40.28;;
51438;SDS011;38816;51.142;-0.974;2023-04-25T00:22:57;44.10;;;39.92;;
51438;SDS011;38816;51.142;-0.974;2023-04-25T00:25:23;42.50;;;37.92;;
51438;SDS011;38816;51.142;-0.974;2023-04-25T00:27:48;41.22;;;37.63;;
51438;SDS011;38816;51.142;-0.974;2023-04-25T00:30:14;41.65;;;37.50;;
51438;SDS011;38816;51.142;-0.974;2023-04-25T00:32:39;40.97;;;37.22;;
51438;SDS011;38816;51.142;-0.974;2023-04-25T00:35:05;40.65;;;36.75;;
51438;SDS011;38816;51.142;-0.974;2023-04-25T00:37:31;41.35;;;37.20;;
51438;SDS011;38816;51.142;-0.974;2023-04-25T00:39:57;41.28;;;36.15;;
51438;SDS011;38816;51.142;-0.974;2023-04-25T00:42:23;39.60;;;35.72;;
51438;SDS011;38816;51.142;-0.974;2023-04-25T00:44:50;37.17;;;33.67;;
51438;SDS011;38816;51.142;-0.974;2023-04-25T00:47:17;36.22;;;33.03;;
51438;SDS011;38816;51.142;-0.974;2023-04-25T00:49:43;39.70;;;33.33;;
51438;SDS011;38816;51.142;-0.974;2023-04-25T00:52:08;35.60;;;31.83;;
51438;SDS011;38816;51.142;-0.974;2023-04-25T00:54:35;34.95;;;31.90;;
51438;SDS011;38816;51.142;-0.974;2023-04-25T00:57:01;33.60;;;30.27;;
51438;SDS011;38816;51.142;-0.974;2023-04-25T00:59:27;34.78;;;31.75;;
51438;SDS011;38816;51.142;-0.974;2023-04-25T01:01:54;33.95;;;30.80;;
51438;SDS011;38816;51.142;-0.974;2023-04-25T01:04:19;34.15;;;30.83;;
51438;SDS011;38816;51.142;-0.974;2023-04-25T01:06:46;32.92;;;29.65;;
51438;SDS011;38816;51.142;-0.974;2023-04-25T01:09:11;33.60;;;30.40;;
51438;SDS011;38816;51.142;-0.974;2023-04-25T01:11:38;33.45;;;30.30;;
51438;SDS011;38816;51.142;-0.974;2023-04-25T01:14:05;36.63;;;30.67;;
51438;SDS011;38816;51.142;-0.974;2023-04-25T01:16:31;33.08;;;29.88;;
51438;SDS011;38816;51.142;-0.974;2023-04-25T01:18:57;32.22;;;29.30;;
51438;SDS011;38816;51.142;-0.974;2023-04-25T01:21:22;32.30;;;28.92;;
51438;SDS011;38816;51.142;-0.974;2023-04-25T01:23:48;34.03;;;29.67;;
51438;SDS011;38816;51.142;-0.974;2023-04-25T01:26:13;34.08;;;29.27;;
51438;SDS011;38816;51.142;-0.974;2023-04-25T01:28:39;36.67;;;30.52;;
51438;SDS011;38816;51.142;-0.974;2023-04-25T01:31:08;34.80;;;28.27;;
51438;SDS011;38816;51.142;-0.974;2023-04-25T01:33:34;33.13;;;29.80;;
51438;SDS011;38816;51.142;-0.974;2023-04-25T01:35:59;33.72;;;30.20;;
51438;SDS011;38816;51.142;-0.974;2023-04-25T01:38:25;33.55;;;29.98;;
51438;SDS011;38816;51.142;-0.974;2023-04-25T01:40:50;32.22;;;29.17;;
51438;SDS011;38816;51.142;-0.974;2023-04-25T01:43:17;32.60;;;29.25;;
51438;SDS011;38816;51.142;-0.974;2023-04-25T01:45:42;33.53;;;29.88;;
51438;SDS011;38816;51.142;-0.974;2023-04-25T01:48:08;36.63;;;29.88;;
51438;SDS011;38816;51.142;-0.974;2023-04-25T01:50:34;34.25;;;30.38;;
51438;SDS011;38816;51.142;-0.974;2023-04-25T01:53:00;34.28;;;30.50;;
51438;SDS011;38816;51.142;-0.974;2023-04-25T01:55:26;32.17;;;29.17;;
51438;SDS011;38816;51.142;-0.974;2023-04-25T01:57:52;34.10;;;30.38;;
51438;SDS011;38816;51.142;-0.974;2023-04-25T02:00:18;33.90;;;29.75;;
51438;SDS011;38816;51.142;-0.974;2023-04-25T02:02:43;34.47;;;30.48;;
51438;SDS011;38816;51.142;-0.974;2023-04-25T02:05:09;33.97;;;30.58;;
51438;SDS011;38816;51.142;-0.974;2023-04-25T02:07:34;31.88;;;29.10;;
51438;SDS011;38816;51.142;-0.974;2023-04-25T02:10:00;34.85;;;30.92;;
51438;SDS011;38816;51.142;-0.974;2023-04-25T02:12:25;40.60;;;30.23;;
51438;SDS011;38816;51.142;-0.974;2023-04-25T02:14:52;32.47;;;29.17;;
51438;SDS011;38816;51.142;-0.974;2023-04-25T02:17:17;32.30;;;29.23;;
51438;SDS011;38816;51.142;-0.974;2023-04-25T02:19:43;32.05;;;29.20;;
51438;SDS011;38816;51.142;-0.974;2023-04-25T02:22:08;32.15;;;29.05;;
51438;SDS011;38816;51.142;-0.974;2023-04-25T02:24:35;32.47;;;29.27;;
51438;SDS011;38816;51.142;-0.974;2023-04-25T02:27:00;32.67;;;29.50;;
51438;SDS011;38816;51.142;-0.974;2023-04-25T02:29:26;30.80;;;28.10;;
51438;SDS011;38816;51.142;-0.974;2023-04-25T02:31:51;33.45;;;29.08;;
51438;SDS011;38816;51.142;-0.974;2023-04-25T02:34:17;33.10;;;29.45;;
51438;SDS011;38816;51.142;-0.974;2023-04-25T02:36:42;32.83;;;29.08;;
51438;SDS011;38816;51.142;-0.974;2023-04-25T02:39:07;31.25;;;28.30;;
51438;SDS011;38816;51.142;-0.974;2023-04-25T02:41:33;32.92;;;29.55;;
51438;SDS011;38816;51.142;-0.974;2023-04-25T02:43:58;33.50;;;28.83;;
51438;SDS011;38816;51.142;-0.974;2023-04-25T02:46:24;31.25;;;28.38;;
51438;SDS011;38816;51.142;-0.974;2023-04-25T02:48:49;30.35;;;27.63;;
51438;SDS011;38816;51.142;-0.974;2023-04-25T02:51:14;32.05;;;28.90;;
51438;SDS011;38816;51.142;-0.974;2023-04-25T02:53:41;31.05;;;28.35;;
51438;SDS011;38816;51.142;-0.974;2023-04-25T02:56:06;30.85;;;28.20;;
51438;SDS011;38816;51.142;-0.974;2023-04-25T02:58:32;31.55;;;28.42;;
51438;SDS011;38816;51.142;-0.974;2023-04-25T03:00:57;30.35;;;27.75;;
51438;SDS011;38816;51.142;-0.974;2023-04-25T03:03:23;34.33;;;27.73;;
51438;SDS011;38816;51.142;-0.974;2023-04-25T03:05:51;33.38;;;28.60;;
51438;SDS011;38816;51.142;-0.974;2023-04-25T03:08:17;30.15;;;27.20;;
51438;SDS011;38816;51.142;-0.974;2023-04-25T03:10:43;30.48;;;27.80;;
51438;SDS011;38816;51.142;-0.974;2023-04-25T03:13:08;30.80;;;27.77;;
51438;SDS011;38816;51.142;-0.974;2023-04-25T03:15:34;30.38;;;27.80;;
51438;SDS011;38816;51.142;-0.974;2023-04-25T03:18:00;29.40;;;26.48;;
51438;SDS011;38816;51.142;-0.974;2023-04-25T03:20:25;29.83;;;27.13;;
51438;SDS011;38816;51.142;-0.974;2023-04-25T03:22:51;29.98;;;27.20;;
51438;SDS011;38816;51.142;-0.974;2023-04-25T03:25:16;32.10;;;28.33;;
51438;SDS011;38816;51.142;-0.974;2023-04-25T03:27:42;29.25;;;26.60;;
51438;SDS011;38816;51.142;-0.974;2023-04-25T03:30:07;29.75;;;26.75;;
51438;SDS011;38816;51.142;-0.974;2023-04-25T03:32:34;28.27;;;25.55;;
51438;SDS011;38816;51.142;-0.974;2023-04-25T03:35:00;29.17;;;25.67;;
51438;SDS011;38816;51.142;-0.974;2023-04-25T03:37:25;27.55;;;24.77;;
51438;SDS011;38816;51.142;-0.974;2023-04-25T03:39:51;26.42;;;23.88;;
51438;SDS011;38816;51.142;-0.974;2023-04-25T03:42:16;27.55;;;25.02;;
51438;SDS011;38816;51.142;-0.974;2023-04-25T03:44:42;27.23;;;24.60;;
51438;SDS011;38816;51.142;-0.974;2023-04-25T03:47:08;28.10;;;25.05;;
51438;SDS011;38816;51.142;-0.974;2023-04-25T03:49:33;27.38;;;24.38;;
51438;SDS011;38816;51.142;-0.974;2023-04-25T03:51:59;26.40;;;24.13;;
51438;SDS011;38816;51.142;-0.974;2023-04-25T03:54:25;28.73;;;24.50;;
51438;SDS011;38816;51.142;-0.974;2023-04-25T03:56:50;28.17;;;24.88;;
51438;SDS011;38816;51.142;-0.974;2023-04-25T03:59:16;27.52;;;24.70;;
51438;SDS011;38816;51.142;-0.974;2023-04-25T04:04:06;28.13;;;24.88;;
51438;SDS011;38816;51.142;-0.974;2023-04-25T04:06:32;27.10;;;24.42;;
51438;SDS011;38816;51.142;-0.974;2023-04-25T04:08:57;27.48;;;24.75;;
51438;SDS011;38816;51.142;-0.974;2023-04-25T04:11:22;31.60;;;23.48;;
51438;SDS011;38816;51.142;-0.974;2023-04-25T04:13:48;26.55;;;23.88;;
51438;SDS011;38816;51.142;-0.974;2023-04-25T04:16:13;27.23;;;23.88;;
51438;SDS011;38816;51.142;-0.974;2023-04-25T04:18:38;26.58;;;23.88;;
51438;SDS011;38816;51.142;-0.974;2023-04-25T04:21:04;26.42;;;23.77;;
51438;SDS011;38816;51.142;-0.974;2023-04-25T04:23:30;26.52;;;23.45;;
51438;SDS011;38816;51.142;-0.974;2023-04-25T04:25:55;26.65;;;22.92;;
51438;SDS011;38816;51.142;-0.974;2023-04-25T04:28:21;26.63;;;23.80;;
51438;SDS011;38816;51.142;-0.974;2023-04-25T04:30:46;28.52;;;23.33;;
51438;SDS011;38816;51.142;-0.974;2023-04-25T04:33:12;25.98;;;23.38;;
51438;SDS011;38816;51.142;-0.974;2023-04-25T04:35:40;26.27;;;23.95;;
51438;SDS011;38816;51.142;-0.974;2023-04-25T04:38:06;28.42;;;23.55;;
51438;SDS011;38816;51.142;-0.974;2023-04-25T04:40:31;28.08;;;23.55;;
51438;SDS011;38816;51.142;-0.974;2023-04-25T04:42:57;31.02;;;23.15;;
51438;SDS011;38816;51.142;-0.974;2023-04-25T04:45:22;27.02;;;22.85;;
51438;SDS011;38816;51.142;-0.974;2023-04-25T04:47:48;31.02;;;23.35;;
51438;SDS011;38816;51.142;-0.974;2023-04-25T04:50:14;25.95;;;23.25;;
51438;SDS011;38816;51.142;-0.974;2023-04-25T04:52:41;26.20;;;21.92;;
51438;SDS011;38816;51.142;-0.974;2023-04-25T04:55:06;25.13;;;22.75;;
51438;SDS011;38816;51.142;-0.974;2023-04-25T04:57:33;24.85;;;22.10;;
51438;SDS011;38816;51.142;-0.974;2023-04-25T04:59:58;24.13;;;21.83;;
51438;SDS011;38816;51.142;-0.974;2023-04-25T05:02:24;24.60;;;22.02;;
51438;SDS011;38816;51.142;-0.974;2023-04-25T05:04:50;28.42;;;22.27;;
51438;SDS011;38816;51.142;-0.974;2023-04-25T05:07:16;24.45;;;22.23;;
51438;SDS011;38816;51.142;-0.974;2023-04-25T05:09:42;24.42;;;21.10;;
51438;SDS011;38816;51.142;-0.974;2023-04-25T05:12:07;23.70;;;21.25;;
51438;SDS011;38816;51.142;-0.974;2023-04-25T05:14:33;24.45;;;20.65;;
51438;SDS011;38816;51.142;-0.974;2023-04-25T05:16:58;23.30;;;20.88;;
51438;SDS011;38816;51.142;-0.974;2023-04-25T05:19:24;23.38;;;20.98;;
51438;SDS011;38816;51.142;-0.974;2023-04-25T05:21:49;23.23;;;20.88;;
51438;SDS011;38816;51.142;-0.974;2023-04-25T05:24:15;26.92;;;21.17;;
51438;SDS011;38816;51.142;-0.974;2023-04-25T05:26:41;22.63;;;20.38;;
51438;SDS011;38816;51.142;-0.974;2023-04-25T05:29:06;24.85;;;20.58;;
51438;SDS011;38816;51.142;-0.974;2023-04-25T05:31:31;24.05;;;21.70;;
51438;SDS011;38816;51.142;-0.974;2023-04-25T05:33:57;24.52;;;21.45;;
51438;SDS011;38816;51.142;-0.974;2023-04-25T05:36:22;23.33;;;20.95;;
51438;SDS011;38816;51.142;-0.974;2023-04-25T05:38:48;23.10;;;20.88;;
51438;SDS011;38816;51.142;-0.974;2023-04-25T05:41:13;24.80;;;21.77;;
51438;SDS011;38816;51.142;-0.974;2023-04-25T05:43:39;25.42;;;21.85;;
51438;SDS011;38816;51.142;-0.974;2023-04-25T05:46:10;24.63;;;22.17;;
51438;SDS011;38816;51.142;-0.974;2023-04-25T05:48:35;27.52;;;21.30;;
51438;SDS011;38816;51.142;-0.974;2023-04-25T05:51:01;24.63;;;21.02;;
51438;SDS011;38816;51.142;-0.974;2023-04-25T05:53:26;24.88;;;20.95;;
51438;SDS011;38816;51.142;-0.974;2023-04-25T05:55:51;24.08;;;21.88;;
51438;SDS011;38816;51.142;-0.974;2023-04-25T05:58:17;26.42;;;21.42;;
51438;SDS011;38816;51.142;-0.974;2023-04-25T06:00:42;29.25;;;22.77;;
51438;SDS011;38816;51.142;-0.974;2023-04-25T06:03:07;23.63;;;21.50;;
51438;SDS011;38816;51.142;-0.974;2023-04-25T06:05:34;24.02;;;21.55;;
51438;SDS011;38816;51.142;-0.974;2023-04-25T06:08:00;29.55;;;21.98;;
51438;SDS011;38816;51.142;-0.974;2023-04-25T06:10:26;24.85;;;22.45;;
51438;SDS011;38816;51.142;-0.974;2023-04-25T06:12:51;26.30;;;23.48;;
51438;SDS011;38816;51.142;-0.974;2023-04-25T06:15:17;25.60;;;22.83;;
51438;SDS011;38816;51.142;-0.974;2023-04-25T06:17:42;27.00;;;24.50;;
51438;SDS011;38816;51.142;-0.974;2023-04-25T06:20:08;25.02;;;22.83;;
51438;SDS011;38816;51.142;-0.974;2023-04-25T06:22:34;28.00;;;25.50;;
51438;SDS011;38816;51.142;-0.974;2023-04-25T06:24:59;27.95;;;25.38;;
51438;SDS011;38816;51.142;-0.974;2023-04-25T06:27:25;28.17;;;25.58;;
51438;SDS011;38816;51.142;-0.974;2023-04-25T06:29:50;27.42;;;24.95;;
51438;SDS011;38816;51.142;-0.974;2023-04-25T06:32:16;28.38;;;25.58;;
51438;SDS011;38816;51.142;-0.974;2023-04-25T06:34:43;30.55;;;27.45;;
51438;SDS011;38816;51.142;-0.974;2023-04-25T06:37:08;29.10;;;26.30;;
51438;SDS011;38816;51.142;-0.974;2023-04-25T06:39:34;28.48;;;26.17;;
51438;SDS011;38816;51.142;-0.974;2023-04-25T06:41:59;29.85;;;26.75;;
51438;SDS011;38816;51.142;-0.974;2023-04-25T06:44:25;28.73;;;25.90;;
51438;SDS011;38816;51.142;-0.974;2023-04-25T06:46:51;28.15;;;25.77;;
51438;SDS011;38816;51.142;-0.974;2023-04-25T06:49:16;30.42;;;27.77;;
51438;SDS011;38816;51.142;-0.974;2023-04-25T06:51:41;29.80;;;26.52;;
51438;SDS011;38816;51.142;-0.974;2023-04-25T06:54:07;29.63;;;26.80;;
51438;SDS011;38816;51.142;-0.974;2023-04-25T06:56:32;29.10;;;26.25;;
51438;SDS011;38816;51.142;-0.974;2023-04-25T06:58:58;33.17;;;26.63;;
51438;SDS011;38816;51.142;-0.974;2023-04-25T07:01:25;29.20;;;26.35;;
51438;SDS011;38816;51.142;-0.974;2023-04-25T07:03:50;28.75;;;25.95;;
51438;SDS011;38816;51.142;-0.974;2023-04-25T07:06:16;28.88;;;26.17;;
51438;SDS011;38816;51.142;-0.974;2023-04-25T07:08:41;29.00;;;25.90;;
51438;SDS011;38816;51.142;-0.974;2023-04-25T07:11:06;28.80;;;26.15;;
51438;SDS011;38816;51.142;-0.974;2023-04-25T07:13:32;28.90;;;25.77;;
51438;SDS011;38816;51.142;-0.974;2023-04-25T07:15:57;29.77;;;26.67;;
51438;SDS011;38816;51.142;-0.974;2023-04-25T07:18:23;28.13;;;25.10;;
51438;SDS011;38816;51.142;-0.974;2023-04-25T07:20:48;27.63;;;25.00;;
51438;SDS011;38816;51.142;-0.974;2023-04-25T07:23:13;26.60;;;24.25;;
51438;SDS011;38816;51.142;-0.974;2023-04-25T07:25:39;28.05;;;25.13;;
51438;SDS011;38816;51.142;-0.974;2023-04-25T07:28:04;25.63;;;23.30;;
51438;SDS011;38816;51.142;-0.974;2023-04-25T07:30:30;26.48;;;23.63;;
51438;SDS011;38816;51.142;-0.974;2023-04-25T07:32:55;25.75;;;23.67;;
51438;SDS011;38816;51.142;-0.974;2023-04-25T07:35:21;25.42;;;22.88;;
51438;SDS011;38816;51.142;-0.974;2023-04-25T07:37:46;24.67;;;22.58;;
51438;SDS011;38816;51.142;-0.974;2023-04-25T07:40:12;24.23;;;22.13;;
51438;SDS011;38816;51.142;-0.974;2023-04-25T07:42:37;24.88;;;22.40;;
51438;SDS011;38816;51.142;-0.974;2023-04-25T07:45:03;24.67;;;22.20;;
51438;SDS011;38816;51.142;-0.974;2023-04-25T07:47:28;23.65;;;21.73;;
51438;SDS011;38816;51.142;-0.974;2023-04-25T07:49:54;24.98;;;21.83;;
51438;SDS011;38816;51.142;-0.974;2023-04-25T07:52:19;25.95;;;21.60;;
51438;SDS011;38816;51.142;-0.974;2023-04-25T07:54:45;23.30;;;21.27;;
51438;SDS011;38816;51.142;-0.974;2023-04-25T07:57:12;21.73;;;20.00;;
51438;SDS011;38816;51.142;-0.974;2023-04-25T07:59:38;23.08;;;20.98;;
51438;SDS011;38816;51.142;-0.974;2023-04-25T08:02:04;23.58;;;21.27;;
51438;SDS011;38816;51.142;-0.974;2023-04-25T08:04:30;23.92;;;21.70;;
51438;SDS011;38816;51.142;-0.974;2023-04-25T08:06:56;23.52;;;21.27;;
51438;SDS011;38816;51.142;-0.974;2023-04-25T08:09:21;23.48;;;21.40;;
51438;SDS011;38816;51.142;-0.974;2023-04-25T08:11:47;22.95;;;20.70;;
51438;SDS011;38816;51.142;-0.974;2023-04-25T08:14:13;23.35;;;20.92;;
51438;SDS011;38816;51.142;-0.974;2023-04-25T08:16:38;21.58;;;19.38;;
51438;SDS011;38816;51.142;-0.974;2023-04-25T08:19:04;20.35;;;18.58;;
51438;SDS011;38816;51.142;-0.974;2023-04-25T08:21:30;19.50;;;18.00;;
51438;SDS011;38816;51.142;-0.974;2023-04-25T08:23:56;17.75;;;16.00;;
51438;SDS011;38816;51.142;-0.974;2023-04-25T08:26:23;18.45;;;16.58;;
51438;SDS011;38816;51.142;-0.974;2023-04-25T08:28:49;20.52;;;17.20;;
51438;SDS011;38816;51.142;-0.974;2023-04-25T08:31:14;20.60;;;16.77;;
51438;SDS011;38816;51.142;-0.974;2023-04-25T08:33:39;21.88;;;15.57;;
51438;SDS011;38816;51.142;-0.974;2023-04-25T08:36:05;18.83;;;16.30;;
51438;SDS011;38816;51.142;-0.974;2023-04-25T08:38:31;16.95;;;15.32;;
51438;SDS011;38816;51.142;-0.974;2023-04-25T08:40:56;16.27;;;14.75;;
51438;SDS011;38816;51.142;-0.974;2023-04-25T08:43:22;14.80;;;13.63;;
51438;SDS011;38816;51.142;-0.974;2023-04-25T08:45:48;20.75;;;14.15;;
51438;SDS011;38816;51.142;-0.974;2023-04-25T08:48:14;15.63;;;13.23;;
51438;SDS011;38816;51.142;-0.974;2023-04-25T08:50:51;19.23;;;10.57;;
51438;SDS011;38816;51.142;-0.974;2023-04-25T08:53:21;15.98;;;10.77;;
51438;SDS011;38816;51.142;-0.974;2023-04-25T08:55:50;15.80;;;10.98;;
51438;SDS011;38816;51.142;-0.974;2023-04-25T08:58:18;11.10;;;10.10;;
51438;SDS011;38816;51.142;-0.974;2023-04-25T09:00:43;9.65;;;8.70;;
51438;SDS011;38816;51.142;-0.974;2023-04-25T09:03:10;12.57;;;9.43;;
51438;SDS011;38816;51.142;-0.974;2023-04-25T09:05:36;9.77;;;8.68;;
51438;SDS011;38816;51.142;-0.974;2023-04-25T09:08:01;14.52;;;7.60;;
51438;SDS011;38816;51.142;-0.974;2023-04-25T09:10:27;9.48;;;7.32;;
51438;SDS011;38816;51.142;-0.974;2023-04-25T09:13:09;8.98;;;7.10;;
51438;SDS011;38816;51.142;-0.974;2023-04-25T09:15:49;9.60;;;7.00;;
51438;SDS011;38816;51.142;-0.974;2023-04-25T09:18:23;10.43;;;6.65;;
51438;SDS011;38816;51.142;-0.974;2023-04-25T09:20:51;13.90;;;6.43;;
51438;SDS011;38816;51.142;-0.974;2023-04-25T09:23:20;6.60;;;5.18;;
51438;SDS011;38816;51.142;-0.974;2023-04-25T09:25:47;8.77;;;5.18;;
51438;SDS011;38816;51.142;-0.974;2023-04-25T09:28:14;6.63;;;4.88;;
51438;SDS011;38816;51.142;-0.974;2023-04-25T09:30:39;6.55;;;4.07;;
51438;SDS011;38816;51.142;-0.974;2023-04-25T09:33:11;4.38;;;3.83;;
51438;SDS011;38816;51.142;-0.974;2023-04-25T09:35:37;3.88;;;3.47;;
51438;SDS011;38816;51.142;-0.974;2023-04-25T09:38:11;3.90;;;3.30;;
51438;SDS011;38816;51.142;-0.974;2023-04-25T09:43:10;5.57;;;3.50;;
51438;SDS011;38816;51.142;-0.974;2023-04-25T09:45:46;4.82;;;3.15;;
51438;SDS011;38816;51.142;-0.974;2023-04-25T09:48:16;7.70;;;3.05;;
51438;SDS011;38816;51.142;-0.974;2023-04-25T09:50:45;4.97;;;2.58;;
51438;SDS011;38816;51.142;-0.974;2023-04-25T09:53:41;3.97;;;2.58;;
51438;SDS011;38816;51.142;-0.974;2023-04-25T09:56:09;6.45;;;3.17;;
51438;SDS011;38816;51.142;-0.974;2023-04-25T09:58:36;5.88;;;2.63;;
51438;SDS011;38816;51.142;-0.974;2023-04-25T10:01:03;5.13;;;2.25;;
51438;SDS011;38816;51.142;-0.974;2023-04-25T10:03:31;4.20;;;2.63;;
51438;SDS011;38816;51.142;-0.974;2023-04-25T10:06:01;3.03;;;2.08;;
51438;SDS011;38816;51.142;-0.974;2023-04-25T10:08:31;2.30;;;2.00;;
51438;SDS011;38816;51.142;-0.974;2023-04-25T10:11:01;4.07;;;2.10;;
51438;SDS011;38816;51.142;-0.974;2023-04-25T10:13:29;4.60;;;2.30;;
51438;SDS011;38816;51.142;-0.974;2023-04-25T10:15:56;5.07;;;2.60;;
51438;SDS011;38816;51.142;-0.974;2023-04-25T10:18:28;4.17;;;2.60;;
51438;SDS011;38816;51.142;-0.974;2023-04-25T10:20:54;3.72;;;2.70;;
51438;SDS011;38816;51.142;-0.974;2023-04-25T10:23:21;4.20;;;2.63;;
51438;SDS011;38816;51.142;-0.974;2023-04-25T10:25:49;5.28;;;2.78;;
51438;SDS011;38816;51.142;-0.974;2023-04-25T10:28:16;5.00;;;2.35;;
51438;SDS011;38816;51.142;-0.974;2023-04-25T10:33:38;4.18;;;2.67;;
51438;SDS011;38816;51.142;-0.974;2023-04-25T10:36:12;6.85;;;2.60;;
51438;SDS011;38816;51.142;-0.974;2023-04-25T10:38:40;4.07;;;2.30;;
51438;SDS011;38816;51.142;-0.974;2023-04-25T10:41:08;4.20;;;2.78;;
51438;SDS011;38816;51.142;-0.974;2023-04-25T10:43:35;4.18;;;2.42;;
51438;SDS011;38816;51.142;-0.974;2023-04-25T10:46:02;11.02;;;2.60;;
51438;SDS011;38816;51.142;-0.974;2023-04-25T10:48:50;7.03;;;3.17;;
51438;SDS011;38816;51.142;-0.974;2023-04-25T10:51:17;7.25;;;2.83;;
51438;SDS011;38816;51.142;-0.974;2023-04-25T10:54:03;6.85;;;2.80;;
51438;SDS011;38816;51.142;-0.974;2023-04-25T10:56:39;9.10;;;2.88;;
51438;SDS011;38816;51.142;-0.974;2023-04-25T10:59:10;7.25;;;2.95;;
51438;SDS011;38816;51.142;-0.974;2023-04-25T11:01:46;6.13;;;2.83;;
51438;SDS011;38816;51.142;-0.974;2023-04-25T11:04:30;6.03;;;3.65;;
51438;SDS011;38816;51.142;-0.974;2023-04-25T11:09:38;4.07;;;3.30;;
51438;SDS011;38816;51.142;-0.974;2023-04-25T11:12:05;9.43;;;3.33;;
51438;SDS011;38816;51.142;-0.974;2023-04-25T11:14:36;6.82;;;4.07;;
51438;SDS011;38816;51.142;-0.974;2023-04-25T11:17:02;4.75;;;3.65;;
51438;SDS011;38816;51.142;-0.974;2023-04-25T11:19:27;6.18;;;3.83;;
51438;SDS011;38816;51.142;-0.974;2023-04-25T11:21:57;4.63;;;3.53;;
51438;SDS011;38816;51.142;-0.974;2023-04-25T11:24:29;6.78;;;3.17;;
51438;SDS011;38816;51.142;-0.974;2023-04-25T11:26:57;8.18;;;4.15;;
51438;SDS011;38816;51.142;-0.974;2023-04-25T11:29:26;5.32;;;3.97;;
51438;SDS011;38816;51.142;-0.974;2023-04-25T11:31:52;5.45;;;3.92;;
51438;SDS011;38816;51.142;-0.974;2023-04-25T11:34:18;6.35;;;4.13;;
51438;SDS011;38816;51.142;-0.974;2023-04-25T11:36:44;8.35;;;3.95;;
51438;SDS011;38816;51.142;-0.974;2023-04-25T11:39:11;5.18;;;4.15;;
51438;SDS011;38816;51.142;-0.974;2023-04-25T11:41:39;4.75;;;4.25;;
51438;SDS011;38816;51.142;-0.974;2023-04-25T11:44:05;5.70;;;4.72;;
51438;SDS011;38816;51.142;-0.974;2023-04-25T11:46:33;7.22;;;4.50;;
51438;SDS011;38816;51.142;-0.974;2023-04-25T11:48:59;8.00;;;5.30;;
51438;SDS011;38816;51.142;-0.974;2023-04-25T11:51:25;9.45;;;5.63;;
51438;SDS011;38816;51.142;-0.974;2023-04-25T11:53:51;8.05;;;4.88;;
51438;SDS011;38816;51.142;-0.974;2023-04-25T11:56:16;7.30;;;5.57;;
51438;SDS011;38816;51.142;-0.974;2023-04-25T12:01:27;5.75;;;4.93;;
51438;SDS011;38816;51.142;-0.974;2023-04-25T12:04:13;9.60;;;5.00;;
51438;SDS011;38816;51.142;-0.974;2023-04-25T12:06:48;8.00;;;5.38;;
51438;SDS011;38816;51.142;-0.974;2023-04-25T12:09:19;7.13;;;5.85;;
51438;SDS011;38816;51.142;-0.974;2023-04-25T12:11:55;11.82;;;6.07;;
51438;SDS011;38816;51.142;-0.974;2023-04-25T12:14:26;7.18;;;6.15;;
51438;SDS011;38816;51.142;-0.974;2023-04-25T12:16:54;11.10;;;5.03;;
51438;SDS011;38816;51.142;-0.974;2023-04-25T12:19:22;7.88;;;5.90;;
51438;SDS011;38816;51.142;-0.974;2023-04-25T12:21:48;6.43;;;5.30;;
51438;SDS011;38816;51.142;-0.974;2023-04-25T12:24:16;8.07;;;5.80;;
51438;SDS011;38816;51.142;-0.974;2023-04-25T12:26:49;7.32;;;5.70;;
51438;SDS011;38816;51.142;-0.974;2023-04-25T12:29:25;6.85;;;5.85;;
51438;SDS011;38816;51.142;-0.974;2023-04-25T12:31:51;11.60;;;6.10;;
51438;SDS011;38816;51.142;-0.974;2023-04-25T12:34:18;7.93;;;5.90;;
51438;SDS011;38816;51.142;-0.974;2023-04-25T12:36:44;9.73;;;6.35;;
51438;SDS011;38816;51.142;-0.974;2023-04-25T12:39:22;6.97;;;6.32;;
51438;SDS011;38816;51.142;-0.974;2023-04-25T12:41:49;8.57;;;7.43;;
51438;SDS011;38816;51.142;-0.974;2023-04-25T12:44:17;8.75;;;7.72;;
51438;SDS011;38816;51.142;-0.974;2023-04-25T12:46:42;9.27;;;7.75;;
51438;SDS011;38816;51.142;-0.974;2023-04-25T12:49:08;8.73;;;7.80;;
51438;SDS011;38816;51.142;-0.974;2023-04-25T12:51:34;8.57;;;7.80;;
51438;SDS011;38816;51.142;-0.974;2023-04-25T12:54:00;11.57;;;9.18;;
51438;SDS011;38816;51.142;-0.974;2023-04-25T12:56:27;10.07;;;9.15;;
51438;SDS011;38816;51.142;-0.974;2023-04-25T12:58:52;12.65;;;8.95;;
51438;SDS011;38816;51.142;-0.974;2023-04-25T13:01:18;9.50;;;8.23;;
51438;SDS011;38816;51.142;-0.974;2023-04-25T13:03:44;12.60;;;9.18;;
51438;SDS011;38816;51.142;-0.974;2023-04-25T13:06:09;9.93;;;9.05;;
51438;SDS011;38816;51.142;-0.974;2023-04-25T13:08:35;10.82;;;8.45;;
51438;SDS011;38816;51.142;-0.974;2023-04-25T13:11:02;9.93;;;8.93;;
51438;SDS011;38816;51.142;-0.974;2023-04-25T13:13:28;9.02;;;8.02;;
51438;SDS011;38816;51.142;-0.974;2023-04-25T13:15:54;8.27;;;7.68;;
51438;SDS011;38816;51.142;-0.974;2023-04-25T13:18:20;9.43;;;7.88;;
51438;SDS011;38816;51.142;-0.974;2023-04-25T13:20:45;9.38;;;8.50;;
51438;SDS011;38816;51.142;-0.974;2023-04-25T13:23:11;9.63;;;8.77;;
51438;SDS011;38816;51.142;-0.974;2023-04-25T13:25:37;9.00;;;8.15;;
51438;SDS011;38816;51.142;-0.974;2023-04-25T13:28:02;11.45;;;8.68;;
51438;SDS011;38816;51.142;-0.974;2023-04-25T13:30:28;9.82;;;8.63;;
51438;SDS011;38816;51.142;-0.974;2023-04-25T13:32:53;9.35;;;8.00;;
51438;SDS011;38816;51.142;-0.974;2023-04-25T13:35:21;10.30;;;9.40;;
51438;SDS011;38816;51.142;-0.974;2023-04-25T13:37:46;10.13;;;9.13;;
51438;SDS011;38816;51.142;-0.974;2023-04-25T13:40:11;10.65;;;8.70;;
51438;SDS011;38816;51.142;-0.974;2023-04-25T13:42:37;9.25;;;7.35;;
51438;SDS011;38816;51.142;-0.974;2023-04-25T13:45:03;10.18;;;7.68;;
51438;SDS011;38816;51.142;-0.974;2023-04-25T13:47:29;9.45;;;8.45;;
51438;SDS011;38816;51.142;-0.974;2023-04-25T13:49:55;11.68;;;10.48;;
51438;SDS011;38816;51.142;-0.974;2023-04-25T13:52:21;12.38;;;11.18;;
51438;SDS011;38816;51.142;-0.974;2023-04-25T13:54:48;11.15;;;10.07;;
51438;SDS011;38816;51.142;-0.974;2023-04-25T13:57:14;16.10;;;9.18;;
51438;SDS011;38816;51.142;-0.974;2023-04-25T13:59:40;12.07;;;9.50;;
51438;SDS011;38816;51.142;-0.974;2023-04-25T14:02:06;12.85;;;11.65;;
51438;SDS011;38816;51.142;-0.974;2023-04-25T14:04:32;14.00;;;10.60;;
51438;SDS011;38816;51.142;-0.974;2023-04-25T14:06:58;11.77;;;10.73;;
51438;SDS011;38816;51.142;-0.974;2023-04-25T14:09:23;12.55;;;11.50;;
51438;SDS011;38816;51.142;-0.974;2023-04-25T14:11:53;11.85;;;10.63;;
51438;SDS011;38816;51.142;-0.974;2023-04-25T14:14:20;11.10;;;10.00;;
51438;SDS011;38816;51.142;-0.974;2023-04-25T14:16:46;13.30;;;12.00;;
51438;SDS011;38816;51.142;-0.974;2023-04-25T14:19:16;12.90;;;11.60;;
51438;SDS011;38816;51.142;-0.974;2023-04-25T14:21:45;13.50;;;12.18;;
51438;SDS011;38816;51.142;-0.974;2023-04-25T14:24:11;12.65;;;11.35;;
51438;SDS011;38816;51.142;-0.974;2023-04-25T14:26:36;11.40;;;10.30;;